Iles-de-la-Madeleine, Canada
Current Conditions -  °F | °C
As of 11:00 PM on Monday 26 Jan 2015 (Local Time) from CYGR Reporting Station
Snow Showers Snow Showers  
Wind Chill: -17°   Ceiling: 2500
Heat Index: -10°   Visibility: 15mi
Dew Point: -16°   Wind: 10mph
Humidity: 62%   Direction: 320°NW
Pressure: 30.39"   Gusts: NA
Location:  47.42°N, 61.77°W
Report Text: CYGR 270300Z 32009KT 15SM -SHSN BKN025 M10/M16 A3039 RMK SC7 LAST OBS/NEXT 271000 UTC SLP290
Loading
Personal Weather Stations






























Interactive Weather Map New forecast layout! Learn more

10-Day Weather Forecast

Advertisements
Track Severe Weather on mobile